Time;durP1;ratioP1;P1;durP2;ratioP2;P2;SDS_P1;SDS_P2;PMS_P1;PMS_P2;Temp;Humidity;BMP_temperature;BMP_pressure;BME280_temperature;BME280_humidity;BME280_pressure;Samples;Min_cycle;Max_cycle;Signal;HPM_P1;HPM_P2
2020/12/27 00:02:07;;;;;;;15.6;9;;;;;;;-4.26;80.34961;99189.88;;;;
2020/12/27 00:12:05;;;;;;;13.7;8.3;;;;;;;-4.39;80.52832;99167.98;;;;
2020/12/27 00:22:06;;;;;;;16.8;8.9;;;;;;;-4.52;80.33105;99168.75;;;;
2020/12/27 00:31:59;;;;;;;11.7;7.8;;;;;;;-4.68;80.40918;99145.41;;;;
2020/12/27 00:41:56;;;;;;;21.9;10.1;;;;;;;-4.71;80.90527;99141.36;;;;
2020/12/27 00:51:53;;;;;;;15;9.2;;;;;;;-4.8;80.79785;99141.72;;;;
2020/12/27 01:01:50;;;;;;;15.5;8.3;;;;;;;-4.92;81.16699;99135.38;;;;
2020/12/27 01:11:47;;;;;;;17.3;12.2;;;;;;;-4.88;81.53418;99116.41;;;;
2020/12/27 01:21:44;;;;;;;17.3;13.5;;;;;;;-4.76;81.33887;99095.64;;;;
2020/12/27 01:31:44;;;;;;;28.1;14.8;;;;;;;-4.78;80.99902;99073.98;;;;
2020/12/27 01:41:39;;;;;;;16.9;12.2;;;;;;;-4.8;80.58105;99060.23;;;;
2020/12/27 01:51:36;;;;;;;19.7;12.8;;;;;;;-4.91;80.27734;99051.09;;;;
2020/12/27 02:01:33;;;;;;;19.2;11.7;;;;;;;-5.1;80.18945;99042.12;;;;
2020/12/27 02:11:30;;;;;;;18.3;11.5;;;;;;;-5.13;80.11914;99034.63;;;;
2020/12/27 02:21:27;;;;;;;23;14.6;;;;;;;-5.25;80.78906;99017.82;;;;
2020/12/27 02:31:24;;;;;;;16.1;10.1;;;;;;;-5.42;80.73633;99011.28;;;;
2020/12/27 02:41:21;;;;;;;21;13;;;;;;;-5.61;80.35156;99006.72;;;;
2020/12/27 02:51:18;;;;;;;16.8;12.5;;;;;;;-5.77;80.81934;98981.61;;;;
2020/12/27 03:01:15;;;;;;;18.7;8.7;;;;;;;-5.9;80.6416;98957.14;;;;
2020/12/27 03:21:09;;;;;;;33.6;23;;;;;;;-6.06;81.64258;98939.88;;;;
2020/12/27 03:31:06;;;;;;;29.9;20.7;;;;;;;-6.28;82.68164;98936.5;;;;
2020/12/27 03:41:03;;;;;;;30.6;19.4;;;;;;;-6.4;82.39844;98901.33;;;;
2020/12/27 03:51:00;;;;;;;23.9;13.2;;;;;;;-6.49;81.61328;98891.97;;;;
2020/12/27 04:00:57;;;;;;;27.9;17.3;;;;;;;-6.29;81.85742;98882.45;;;;
2020/12/27 04:10:54;;;;;;;38.2;21.3;;;;;;;-6.35;83.20898;98856.98;;;;
2020/12/27 04:20:51;;;;;;;42.8;23.2;;;;;;;-6.43;82.32715;98824.88;;;;
2020/12/27 04:30:48;;;;;;;16.8;8.2;;;;;;;-6.17;82.57227;98804.02;;;;
2020/12/27 04:40:47;;;;;;;12;7.2;;;;;;;-5.93;81.48242;98789.57;;;;
2020/12/27 04:50:45;;;;;;;10.8;7.9;;;;;;;-5.76;80.83203;98772.46;;;;
2020/12/27 05:00:39;;;;;;;11.5;7.2;;;;;;;-5.78;80.69824;98775.27;;;;
2020/12/27 05:10:36;;;;;;;20.9;14;;;;;;;-5.91;80.45801;98774.46;;;;
2020/12/27 05:20:33;;;;;;;20.2;9.7;;;;;;;-6.03;79.79297;98762.91;;;;
2020/12/27 05:30:30;;;;;;;28.9;17;;;;;;;-6.13;80.54688;98764.09;;;;
2020/12/27 05:40:27;;;;;;;26.8;20.3;;;;;;;-6.48;82.6084;98766.95;;;;
2020/12/27 05:50:24;;;;;;;33.6;17.1;;;;;;;-6.6;82.8252;98758.86;;;;
2020/12/27 06:00:21;;;;;;;26.7;17.6;;;;;;;-6.71;82.79199;98756.77;;;;
2020/12/27 06:10:18;;;;;;;38.9;15.4;;;;;;;-6.91;82.19141;98754.05;;;;
2020/12/27 06:20:14;;;;;;;29.4;15.8;;;;;;;-7.09;82.62988;98758.95;;;;
2020/12/27 06:30:11;;;;;;;29.8;15.8;;;;;;;-7.28;83.7373;98759.59;;;;
2020/12/27 06:40:08;;;;;;;24.1;13.5;;;;;;;-7.26;83.63281;98762.84;;;;
2020/12/27 06:50:05;;;;;;;24.1;12.6;;;;;;;-7.23;83.12305;98768.52;;;;
2020/12/27 07:00:02;;;;;;;26.1;15.6;;;;;;;-7.32;84.70117;98735.6;;;;
2020/12/27 07:09:59;;;;;;;29.3;14.6;;;;;;;-7.17;83.68457;98718;;;;
2020/12/27 07:19:56;;;;;;;45.3;22.5;;;;;;;-7.02;83.94238;98707.42;;;;
2020/12/27 07:29:55;;;;;;;39.3;21.2;;;;;;;-6.82;83.66602;98686.56;;;;
2020/12/27 07:39:58;;;;;;;18.3;13.5;;;;;;;-6.57;84.10645;98679.83;;;;
2020/12/27 07:50:08;;;;;;;33.8;18.8;;;;;;;-6.2;83.19531;98668.03;;;;
2020/12/27 07:59:50;;;;;;;22.2;17.1;;;;;;;-5.94;82.74805;98651.55;;;;
2020/12/27 08:09:40;;;;;;;17.8;12.6;;;;;;;-5.85;83.12305;98629.31;;;;
2020/12/27 08:19:37;;;;;;;17.3;12.1;;;;;;;-5.55;82.66309;98630.5;;;;
2020/12/27 08:29:35;;;;;;;17.1;12.4;;;;;;;-5.09;81.7207;98638.31;;;;
2020/12/27 08:39:32;;;;;;;22.1;14.2;;;;;;;-4.7;80.74219;98637.38;;;;
2020/12/27 08:49:29;;;;;;;19.7;10.5;;;;;;;-4.39;79.73438;98634;;;;
2020/12/27 08:59:26;;;;;;;15.2;10.1;;;;;;;-4.01;79.2168;98615.55;;;;
2020/12/27 09:09:23;;;;;;;16.7;11.8;;;;;;;-3.63;78.78906;98597.82;;;;
2020/12/27 09:19:20;;;;;;;14.8;10.8;;;;;;;-3.25;78.35645;98584.48;;;;
2020/12/27 09:29:18;;;;;;;17.6;9.6;;;;;;;-2.9;79.44824;98566.25;;;;
2020/12/27 09:39:15;;;;;;;17;11.7;;;;;;;-2.53;78.63281;98554.59;;;;
2020/12/27 09:49:13;;;;;;;15.8;12.6;;;;;;;-2.2;78.04785;98547.02;;;;
2020/12/27 09:59:10;;;;;;;15.6;11.3;;;;;;;-1.7;76.01172;98509.64;;;;
2020/12/27 10:09:08;;;;;;;20.9;14.5;;;;;;;-1.2;75.72949;98489.56;;;;
2020/12/27 10:19:05;;;;;;;26.4;19.2;;;;;;;-0.62;72.22363;98462.06;;;;
2020/12/27 10:29:03;;;;;;;15.8;10.3;;;;;;;-0.07;70.01465;98436.48;;;;
2020/12/27 10:39:00;;;;;;;14.5;8.8;;;;;;;0.46;64.02344;98409.39;;;;
2020/12/27 10:48:58;;;;;;;9.6;7.3;;;;;;;0.85;61.5332;98351.75;;;;
2020/12/27 10:58:56;;;;;;;9.3;6.7;;;;;;;1.33;61.24805;98342.08;;;;
2020/12/27 11:08:54;;;;;;;11.9;8.5;;;;;;;1.63;57.26953;98318.42;;;;
2020/12/27 11:18:52;;;;;;;9.4;5.9;;;;;;;1.69;55.7207;98295.34;;;;
2020/12/27 11:28:50;;;;;;;12.1;6.3;;;;;;;1.83;53.20313;98270.72;;;;
2020/12/27 11:38:48;;;;;;;8.4;5.6;;;;;;;1.92;52.19922;98241.77;;;;
2020/12/27 11:48:45;;;;;;;9.4;5.2;;;;;;;2.08;49.77832;98194.8;;;;
2020/12/27 11:58:47;;;;;;;7.4;4.2;;;;;;;1.99;51.27344;98184.67;;;;
2020/12/27 12:08:41;;;;;;;8.1;7.1;;;;;;;2.31;49.73828;98154.43;;;;
2020/12/27 12:18:39;;;;;;;7.8;5;;;;;;;2.51;49.16016;98120.66;;;;
2020/12/27 12:28:37;;;;;;;9;5.5;;;;;;;2.59;49.37988;98097.25;;;;
2020/12/27 12:38:35;;;;;;;30.9;18.9;;;;;;;2.54;48.125;98085.55;;;;
2020/12/27 12:48:33;;;;;;;10.2;6.1;;;;;;;2.42;48.12109;98076.27;;;;
2020/12/27 12:58:31;;;;;;;7.3;6.1;;;;;;;2.01;49.62695;98039.03;;;;
2020/12/27 13:08:30;;;;;;;10.9;6.2;;;;;;;1.93;51.04297;98022.83;;;;
2020/12/27 13:18:28;;;;;;;12.6;6.2;;;;;;;1.5;51.64746;98026.75;;;;
2020/12/27 13:28:26;;;;;;;14.6;7.6;;;;;;;1.31;52.07031;98012.39;;;;
2020/12/27 13:38:23;;;;;;;8.5;6.9;;;;;;;1.2;53.3584;97969.09;;;;
2020/12/27 13:48:21;;;;;;;10.1;6.7;;;;;;;0.96;55.22754;97926.32;;;;
2020/12/27 13:58:19;;;;;;;11.4;8.6;;;;;;;0.61;55.69141;97883.78;;;;
2020/12/27 14:08:20;;;;;;;18.9;11.9;;;;;;;0.35;57.16504;97845.77;;;;
2020/12/27 14:18:15;;;;;;;36.2;20.7;;;;;;;0.06;57.70215;97852.55;;;;
2020/12/27 14:28:13;;;;;;;25.8;20.3;;;;;;;-0.32;59.49707;97868.75;;;;
2020/12/27 14:38:10;;;;;;;20.4;16.8;;;;;;;-0.67;61.30371;97842.83;;;;
2020/12/27 14:48:08;;;;;;;28.1;17.4;;;;;;;-0.79;62.72168;97828.97;;;;
2020/12/27 14:58:06;;;;;;;32.7;24.1;;;;;;;-1.09;63.73438;97805.73;;;;
2020/12/27 15:08:04;;;;;;;34;23.5;;;;;;;-1.41;65.07422;97781.91;;;;
2020/12/27 15:18:01;;;;;;;24;17.7;;;;;;;-1.7;66.95508;97757.58;;;;
2020/12/27 15:28:01;;;;;;;25;18.3;;;;;;;-1.89;68.06641;97742.33;;;;
2020/12/27 15:37:56;;;;;;;21.6;17.8;;;;;;;-1.88;68.29883;97712.25;;;;
2020/12/27 15:47:53;;;;;;;26.4;19;;;;;;;-2.1;69.3623;97680.61;;;;
2020/12/27 15:57:51;;;;;;;24.4;18;;;;;;;-2.3;70.1084;97662.72;;;;
2020/12/27 16:07:48;;;;;;;26.3;19.6;;;;;;;-2.39;71.54004;97655.47;;;;
2020/12/27 16:17:46;;;;;;;29.1;18.6;;;;;;;-2.29;72.28125;97643.19;;;;
2020/12/27 16:27:45;;;;;;;30.7;24.2;;;;;;;-2.22;71.66699;97613.98;;;;
2020/12/27 16:37:41;;;;;;;54.2;36;;;;;;;-2.32;71.57422;97605.95;;;;
2020/12/27 16:47:39;;;;;;;44.2;29.6;;;;;;;-2.52;72.83398;97589.91;;;;
2020/12/27 16:57:35;;;;;;;57.2;36.8;;;;;;;-2.71;73.06348;97597.38;;;;
2020/12/27 17:07:33;;;;;;;36.1;23.8;;;;;;;-2.82;74.6084;97566.66;;;;
2020/12/27 17:17:30;;;;;;;35.3;22.9;;;;;;;-2.86;75.16992;97539.19;;;;
2020/12/27 17:27:28;;;;;;;37.8;26.7;;;;;;;-2.93;74.78711;97515.66;;;;
2020/12/27 17:37:25;;;;;;;53.6;40.1;;;;;;;-3.01;74.96973;97505.55;;;;
2020/12/27 17:47:22;;;;;;;56.3;39.2;;;;;;;-3.1;74.76758;97502.57;;;;
2020/12/27 17:57:20;;;;;;;43.1;29.7;;;;;;;-3.11;75.40234;97485.16;;;;
2020/12/27 18:07:17;;;;;;;32.4;26;;;;;;;-3.1;75.10645;97478.05;;;;
2020/12/27 18:17:16;;;;;;;36.4;24.8;;;;;;;-3.12;74.86133;97456.41;;;;
2020/12/27 18:27:11;;;;;;;45.1;31.5;;;;;;;-3.21;75.89648;97442.89;;;;
2020/12/27 18:37:09;;;;;;;143.6;95.5;;;;;;;-3.33;75.67773;97426.41;;;;
2020/12/27 18:47:06;;;;;;;51.6;33.9;;;;;;;-3.27;74.98926;97422.81;;;;
2020/12/27 18:57:03;;;;;;;54.2;33.6;;;;;;;-3.29;75.77246;97385.37;;;;
2020/12/27 19:07:01;;;;;;;51;33.2;;;;;;;-3.18;75.16895;97404.7;;;;
2020/12/27 19:16:58;;;;;;;59.8;37.6;;;;;;;-3.02;74.14746;97368.77;;;;
2020/12/27 19:26:55;;;;;;;43.1;30.7;;;;;;;-2.77;73.79785;97337.33;;;;
2020/12/27 19:36:52;;;;;;;29.1;18.4;;;;;;;-1.99;71.44141;97348.88;;;;
2020/12/27 19:46:51;;;;;;;23.9;15.3;;;;;;;-1.34;68.50781;97319.23;;;;
2020/12/27 19:56:47;;;;;;;29.1;15.2;;;;;;;-1.09;67.48145;97283.06;;;;
2020/12/27 20:06:46;;;;;;;23.8;16.8;;;;;;;-0.94;67.4375;97247.89;;;;
2020/12/27 20:16:42;;;;;;;23;12.2;;;;;;;-0.73;68.60547;97260;;;;
2020/12/27 20:26:40;;;;;;;15;7.1;;;;;;;0.12;67.16406;97230.86;;;;
2020/12/27 20:36:37;;;;;;;12.8;9.1;;;;;;;0.58;66.73926;97195.05;;;;
2020/12/27 20:46:35;;;;;;;25.5;21;;;;;;;0.38;67.45898;97187.26;;;;
2020/12/27 20:56:33;;;;;;;15.7;7.7;;;;;;;1.25;71.58008;97143.73;;;;
2020/12/27 21:06:32;;;;;;;22.2;14;;;;;;;2.07;68.8916;97123.03;;;;
2020/12/27 21:16:28;;;;;;;17.9;13.6;;;;;;;2.46;67.55469;97130.69;;;;
2020/12/27 21:26:26;;;;;;;25.1;16.1;;;;;;;2.42;67.64941;97141.11;;;;
2020/12/27 21:36:24;;;;;;;24.7;17.1;;;;;;;2.29;68.31543;97146.38;;;;
2020/12/27 21:46:22;;;;;;;19.2;15.2;;;;;;;2.19;68.9082;97146.5;;;;
2020/12/27 21:56:20;;;;;;;16.8;11.3;;;;;;;2.06;69.9541;97137.39;;;;
2020/12/27 22:06:18;;;;;;;15.9;10.4;;;;;;;2.16;71.40039;97115.98;;;;
2020/12/27 22:16:16;;;;;;;20.8;11.7;;;;;;;2.35;71.67578;97100.81;;;;
2020/12/27 22:26:16;;;;;;;24.3;12.6;;;;;;;2.29;71.14355;97071.95;;;;
2020/12/27 22:36:12;;;;;;;18;13.6;;;;;;;2.11;71.53516;97060.27;;;;
2020/12/27 22:46:10;;;;;;;18.4;14.2;;;;;;;1.89;72.05273;97023.67;;;;
2020/12/27 22:56:08;;;;;;;26.6;15.2;;;;;;;1.78;72.54297;97006.31;;;;
2020/12/27 23:06:06;;;;;;;15.9;11.6;;;;;;;1.53;72.93359;97012.79;;;;
2020/12/27 23:16:03;;;;;;;22.8;14.9;;;;;;;1.39;74.17969;96990.69;;;;
2020/12/27 23:26:01;;;;;;;20.2;15.2;;;;;;;1.16;74.88965;96964.23;;;;
2020/12/27 23:35:59;;;;;;;21.3;13;;;;;;;0.97;74.74609;96966.89;;;;
2020/12/27 23:45:57;;;;;;;18.8;12.6;;;;;;;0.77;75.95801;96949.35;;;;
2020/12/27 23:55:55;;;;;;;17.2;10.4;;;;;;;0.71;77.07227;96923.98;;;;
